Time;durP1;ratioP1;P1;durP2;ratioP2;P2;SDS_P1;SDS_P2;PMS_P1;PMS_P2;Temp;Humidity;BMP_temperature;BMP_pressure;BME280_temperature;BME280_humidity;BME280_pressure;Samples;Min_cycle;Max_cycle;Signal;HPM_P1;HPM_P2
2022/06/19 00:00:26;;;;;;;7.35;5.85;;;;;;;;;;5025435;28;20631;-52
2022/06/19 00:02:53;;;;;;;9.27;6.68;;;;;;;;;;5017693;28;20232;-51
2022/06/19 00:05:19;;;;;;;8.38;6.43;;;;;;;;;;5029729;28;20231;-52
2022/06/19 00:07:45;;;;;;;6.72;6.22;;;;;;;;;;5021277;28;20710;-53
2022/06/19 00:10:12;;;;;;;9.98;5.57;;;;;;;;;;5024904;28;20236;-53
2022/06/19 00:12:39;;;;;;;7.68;5.82;;;;;;;;;;5036649;28;20646;-52
2022/06/19 00:15:06;;;;;;;7.85;5.97;;;;;;;;;;5030651;28;20238;-53
2022/06/19 00:17:33;;;;;;;9.68;6.32;;;;;;;;;;5044443;28;20232;-53
2022/06/19 00:20:00;;;;;;;10.95;6.03;;;;;;;;;;5043730;28;20243;-52
2022/06/19 00:22:26;;;;;;;5.90;5.40;;;;;;;;;;5042910;28;20618;-52
2022/06/19 00:24:53;;;;;;;7.07;5.85;;;;;;;;;;5044375;28;20232;-53
2022/06/19 00:27:19;;;;;;;7.03;5.40;;;;;;;;;;5043914;28;20607;-53
2022/06/19 00:29:45;;;;;;;12.40;6.70;;;;;;;;;;5041398;28;20243;-52
2022/06/19 00:32:13;;;;;;;6.40;5.30;;;;;;;;;;5043907;28;20232;-52
2022/06/19 00:34:41;;;;;;;7.88;5.47;;;;;;;;;;5042898;28;20228;-51
2022/06/19 00:37:07;;;;;;;10.25;6.28;;;;;;;;;;5042760;28;20224;-51
2022/06/19 00:39:39;;;;;;;5.80;5.28;;;;;;;;;;5039624;28;20236;-51
2022/06/19 00:42:05;;;;;;;6.50;5.80;;;;;;;;;;5017985;28;20324;-52
2022/06/19 00:44:32;;;;;;;6.03;5.43;;;;;;;;;;5021514;28;20243;-52
2022/06/19 00:47:01;;;;;;;6.43;5.32;;;;;;;;;;5024823;28;20237;-52
2022/06/19 00:49:29;;;;;;;8.18;5.68;;;;;;;;;;5029471;28;20237;-53
2022/06/19 00:52:05;;;;;;;6.75;6.10;;;;;;;;;;5022446;28;20244;-53
2022/06/19 00:54:33;;;;;;;10.23;5.47;;;;;;;;;;5021312;28;20320;-53
2022/06/19 00:57:00;;;;;;;8.88;5.57;;;;;;;;;;5024153;28;20228;-52
2022/06/19 00:59:26;;;;;;;6.07;5.47;;;;;;;;;;5023856;28;20318;-52
2022/06/19 01:01:53;;;;;;;8.00;5.10;;;;;;;;;;5022780;28;20928;-54
2022/06/19 01:04:23;;;;;;;5.65;5.13;;;;;;;;;;5024950;28;20224;-69
2022/06/19 01:06:49;;;;;;;5.75;5.18;;;;;;;;;;5023127;28;20232;-54
2022/06/19 01:09:17;;;;;;;6.30;5.40;;;;;;;;;;5029528;28;20237;-53
2022/06/19 01:11:45;;;;;;;10.43;5.70;;;;;;;;;;5026295;28;20233;-52
2022/06/19 01:14:14;;;;;;;6.20;5.60;;;;;;;;;;5027081;28;20240;-54
2022/06/19 01:16:40;;;;;;;6.28;5.68;;;;;;;;;;5031395;28;20264;-52
2022/06/19 01:19:08;;;;;;;6.35;5.75;;;;;;;;;;5049589;28;20235;-52
2022/06/19 01:21:35;;;;;;;7.68;5.05;;;;;;;;;;5017199;28;20239;-52
2022/06/19 01:24:05;;;;;;;7.00;5.70;;;;;;;;;;5023139;28;20229;-51
2022/06/19 01:26:35;;;;;;;6.32;5.70;;;;;;;;;;5016879;28;20311;-53
2022/06/19 01:29:02;;;;;;;7.00;5.95;;;;;;;;;;5026164;28;20694;-52
2022/06/19 01:31:30;;;;;;;8.65;5.85;;;;;;;;;;5023044;28;20239;-52
2022/06/19 01:33:58;;;;;;;6.07;5.30;;;;;;;;;;5022451;28;20631;-52
2022/06/19 01:36:26;;;;;;;6.38;5.40;;;;;;;;;;5012972;28;20229;-53
2022/06/19 01:38:54;;;;;;;8.00;5.82;;;;;;;;;;5025386;28;20310;-53
2022/06/19 01:41:22;;;;;;;8.38;5.70;;;;;;;;;;5017034;28;20323;-54
2022/06/19 01:43:50;;;;;;;6.13;5.63;;;;;;;;;;5043201;28;20236;-52
2022/06/19 01:46:16;;;;;;;13.73;5.80;;;;;;;;;;5038666;28;20232;-52
2022/06/19 01:48:43;;;;;;;8.50;5.60;;;;;;;;;;5023669;28;20236;-51
2022/06/19 01:51:09;;;;;;;6.00;5.20;;;;;;;;;;5019231;28;20236;-53
2022/06/19 01:53:37;;;;;;;5.95;5.55;;;;;;;;;;5025399;28;20240;-53
2022/06/19 01:56:04;;;;;;;8.07;5.90;;;;;;;;;;5019497;28;20233;-53
2022/06/19 01:58:32;;;;;;;8.90;5.72;;;;;;;;;;5021501;28;20239;-53
2022/06/19 02:01:00;;;;;;;6.75;5.32;;;;;;;;;;5021456;28;20422;-52
2022/06/19 02:03:28;;;;;;;6.07;5.57;;;;;;;;;;5023630;28;20263;-52
2022/06/19 02:05:55;;;;;;;6.15;5.63;;;;;;;;;;5021030;28;20239;-52
2022/06/19 02:08:22;;;;;;;5.85;5.30;;;;;;;;;;5020188;28;20427;-53
2022/06/19 02:10:49;;;;;;;6.47;5.85;;;;;;;;;;5021572;28;20233;-52
2022/06/19 02:13:17;;;;;;;6.10;5.57;;;;;;;;;;5027649;28;20232;-52
2022/06/19 02:15:44;;;;;;;7.20;4.78;;;;;;;;;;5045532;28;20634;-53
2022/06/19 02:18:13;;;;;;;7.40;5.57;;;;;;;;;;5026384;28;20233;-52
2022/06/19 02:20:40;;;;;;;5.80;5.32;;;;;;;;;;5020707;28;20319;-53
2022/06/19 02:23:07;;;;;;;9.07;5.60;;;;;;;;;;5023074;28;20244;-52
2022/06/19 02:25:35;;;;;;;6.80;5.80;;;;;;;;;;5019728;28;20247;-61
2022/06/19 02:28:02;;;;;;;13.93;5.00;;;;;;;;;;5039654;28;20285;-53
2022/06/19 02:30:29;;;;;;;9.98;5.60;;;;;;;;;;5032720;28;20739;-53
2022/06/19 02:32:55;;;;;;;6.65;5.30;;;;;;;;;;5028105;28;20239;-53
2022/06/19 02:35:24;;;;;;;8.15;5.75;;;;;;;;;;5023201;28;20329;-52
2022/06/19 02:37:51;;;;;;;10.07;6.22;;;;;;;;;;5022529;28;20247;-52
2022/06/19 02:40:22;;;;;;;7.03;5.72;;;;;;;;;;5024578;28;20250;-53
2022/06/19 02:42:49;;;;;;;5.88;5.30;;;;;;;;;;5061085;28;20250;-52
2022/06/19 02:45:16;;;;;;;10.07;5.90;;;;;;;;;;5033450;28;20232;-53
2022/06/19 02:47:43;;;;;;;8.60;5.68;;;;;;;;;;5022512;28;20237;-55
2022/06/19 02:50:17;;;;;;;6.10;5.60;;;;;;;;;;5029793;28;20240;-52
2022/06/19 02:52:45;;;;;;;6.07;4.95;;;;;;;;;;5023389;28;20247;-53
2022/06/19 02:55:11;;;;;;;7.65;5.90;;;;;;;;;;5031989;28;20268;-52
2022/06/19 02:57:38;;;;;;;8.40;5.97;;;;;;;;;;5017448;28;20355;-51
2022/06/19 03:00:06;;;;;;;6.88;6.22;;;;;;;;;;5020888;28;20243;-52
2022/06/19 03:02:32;;;;;;;7.13;6.47;;;;;;;;;;5021518;28;20248;-54
2022/06/19 03:05:00;;;;;;;7.10;6.43;;;;;;;;;;5018024;28;20233;-53
2022/06/19 03:07:26;;;;;;;7.20;5.85;;;;;;;;;;5019096;28;20238;-53
2022/06/19 03:09:54;;;;;;;11.15;6.90;;;;;;;;;;5025097;28;20232;-53
2022/06/19 03:12:21;;;;;;;6.90;6.30;;;;;;;;;;5020215;28;20232;-52
2022/06/19 03:14:47;;;;;;;7.32;6.45;;;;;;;;;;5029003;28;20243;-52
2022/06/19 03:17:14;;;;;;;6.55;5.80;;;;;;;;;;5034215;28;20236;-64
2022/06/19 03:19:41;;;;;;;6.85;5.60;;;;;;;;;;5024249;28;20314;-52
2022/06/19 03:22:07;;;;;;;7.18;6.05;;;;;;;;;;5018654;28;20311;-52
2022/06/19 03:24:34;;;;;;;9.13;6.50;;;;;;;;;;5028705;28;20323;-54
2022/06/19 03:27:01;;;;;;;10.75;5.85;;;;;;;;;;5028853;28;20258;-51
2022/06/19 03:29:28;;;;;;;8.60;6.40;;;;;;;;;;5026720;28;20225;-53
2022/06/19 03:31:54;;;;;;;11.05;6.95;;;;;;;;;;5022319;28;20240;-53
2022/06/19 03:34:20;;;;;;;9.77;6.25;;;;;;;;;;5035796;28;20231;-52
2022/06/19 03:36:47;;;;;;;9.20;7.10;;;;;;;;;;5040650;28;20232;-52
2022/06/19 03:39:13;;;;;;;9.07;6.35;;;;;;;;;;5058203;28;20736;-52
2022/06/19 03:41:40;;;;;;;7.47;6.78;;;;;;;;;;5045827;28;20242;-52
2022/06/19 03:44:08;;;;;;;6.93;6.32;;;;;;;;;;5037539;28;20339;-52
2022/06/19 03:46:35;;;;;;;12.23;6.78;;;;;;;;;;5026873;28;20228;-52
2022/06/19 03:49:01;;;;;;;14.50;7.45;;;;;;;;;;5042685;28;20228;-52
2022/06/19 03:51:28;;;;;;;7.35;6.65;;;;;;;;;;5021496;28;20244;-52
2022/06/19 03:53:55;;;;;;;6.93;6.15;;;;;;;;;;5029802;28;20244;-52
2022/06/19 03:56:23;;;;;;;9.65;6.43;;;;;;;;;;5023009;28;20232;-51
2022/06/19 03:58:49;;;;;;;14.02;6.40;;;;;;;;;;5024997;28;20294;-52
2022/06/19 04:01:18;;;;;;;7.60;6.88;;;;;;;;;;5022770;28;20228;-51
2022/06/19 04:03:45;;;;;;;6.80;6.20;;;;;;;;;;5022709;28;20323;-54
2022/06/19 04:06:12;;;;;;;7.25;6.65;;;;;;;;;;5024903;28;20230;-52
2022/06/19 04:08:39;;;;;;;7.90;6.55;;;;;;;;;;5039288;28;20239;-52
2022/06/19 04:11:05;;;;;;;9.27;7.55;;;;;;;;;;5030083;28;21648;-53
2022/06/19 04:13:32;;;;;;;7.00;6.38;;;;;;;;;;5022610;28;20236;-52
2022/06/19 04:15:59;;;;;;;8.75;7.47;;;;;;;;;;5024709;28;20244;-51
2022/06/19 04:18:26;;;;;;;10.88;7.07;;;;;;;;;;5024390;28;20615;-52
2022/06/19 04:20:53;;;;;;;7.25;6.53;;;;;;;;;;5025329;28;20240;-52
2022/06/19 04:23:19;;;;;;;8.23;7.60;;;;;;;;;;5022975;28;20256;-51
2022/06/19 04:25:45;;;;;;;9.02;7.25;;;;;;;;;;5024362;28;20235;-52
2022/06/19 04:28:12;;;;;;;9.68;7.78;;;;;;;;;;5019318;28;20599;-52
2022/06/19 04:30:38;;;;;;;8.20;7.50;;;;;;;;;;5041118;28;20250;-52
2022/06/19 04:33:05;;;;;;;9.45;7.53;;;;;;;;;;5045338;28;20688;-52
2022/06/19 04:35:32;;;;;;;8.77;7.85;;;;;;;;;;5039162;28;21052;-52
2022/06/19 04:37:59;;;;;;;10.32;7.22;;;;;;;;;;5045752;28;20247;-52
2022/06/19 04:40:28;;;;;;;12.02;8.27;;;;;;;;;;5046464;28;20232;-52
2022/06/19 04:42:55;;;;;;;12.02;7.90;;;;;;;;;;5044449;28;20752;-52
2022/06/19 04:45:21;;;;;;;8.88;7.93;;;;;;;;;;5042206;28;20238;-52
2022/06/19 04:47:47;;;;;;;12.13;8.15;;;;;;;;;;5045229;28;20227;-51
2022/06/19 04:50:14;;;;;;;11.20;7.60;;;;;;;;;;5046113;28;20318;-52
2022/06/19 04:52:42;;;;;;;9.18;7.55;;;;;;;;;;5046313;28;20240;-52
2022/06/19 04:55:10;;;;;;;8.52;7.57;;;;;;;;;;5045296;28;20323;-52
2022/06/19 04:57:37;;;;;;;10.55;8.05;;;;;;;;;;5039029;28;20228;-52
2022/06/19 05:00:04;;;;;;;11.15;9.00;;;;;;;;;;5043808;28;20238;-53
2022/06/19 05:02:30;;;;;;;10.88;8.93;;;;;;;;;;5042272;28;20239;-52
2022/06/19 05:04:57;;;;;;;13.70;8.18;;;;;;;;;;5045766;28;20228;-51
2022/06/19 05:07:23;;;;;;;10.75;8.52;;;;;;;;;;5043545;28;20228;-53
2022/06/19 05:09:51;;;;;;;10.73;9.60;;;;;;;;;;5041971;28;20526;-52
2022/06/19 05:12:17;;;;;;;8.75;8.07;;;;;;;;;;5042978;28;20242;-51
2022/06/19 05:14:44;;;;;;;9.98;8.98;;;;;;;;;;5044222;28;20234;-52
2022/06/19 05:17:10;;;;;;;10.05;7.97;;;;;;;;;;5041803;28;20232;-51
2022/06/19 05:19:40;;;;;;;9.95;8.75;;;;;;;;;;5045166;28;20338;-57
2022/06/19 05:22:06;;;;;;;9.70;8.40;;;;;;;;;;5028018;28;20243;-53
2022/06/19 05:24:33;;;;;;;10.73;8.82;;;;;;;;;;5023351;28;20306;-53
2022/06/19 05:27:01;;;;;;;11.18;8.40;;;;;;;;;;5021300;28;20244;-51
2022/06/19 05:29:27;;;;;;;8.55;7.70;;;;;;;;;;5015631;28;20238;-51
2022/06/19 05:31:54;;;;;;;9.63;8.20;;;;;;;;;;5024034;28;20232;-52
2022/06/19 05:34:20;;;;;;;13.07;8.43;;;;;;;;;;5014675;28;20229;-51
2022/06/19 05:36:46;;;;;;;9.05;8.10;;;;;;;;;;5025783;28;20247;-53
2022/06/19 05:39:13;;;;;;;9.38;7.70;;;;;;;;;;5030166;28;20732;-52
2022/06/19 05:41:40;;;;;;;9.70;8.23;;;;;;;;;;5020559;28;20235;-52
2022/06/19 05:44:08;;;;;;;8.73;7.88;;;;;;;;;;5025818;28;20228;-52
2022/06/19 05:46:34;;;;;;;12.07;8.20;;;;;;;;;;5034691;28;20275;-52
2022/06/19 05:49:01;;;;;;;14.00;7.85;;;;;;;;;;5041492;28;20244;-52
2022/06/19 05:51:27;;;;;;;8.60;7.85;;;;;;;;;;5041291;28;20243;-51
2022/06/19 05:53:54;;;;;;;11.20;8.00;;;;;;;;;;5048984;28;20252;-52
2022/06/19 05:56:21;;;;;;;10.98;6.82;;;;;;;;;;5045805;28;20612;-52
2022/06/19 05:58:48;;;;;;;8.80;6.97;;;;;;;;;;5034051;28;20235;-52
2022/06/19 06:01:16;;;;;;;14.55;8.68;;;;;;;;;;5020954;28;20229;-52
2022/06/19 06:03:43;;;;;;;10.30;8.45;;;;;;;;;;5023005;28;20229;-52
2022/06/19 06:06:13;;;;;;;9.70;7.80;;;;;;;;;;5026653;28;20327;-52
2022/06/19 06:08:39;;;;;;;14.10;8.25;;;;;;;;;;5027376;28;20312;-52
2022/06/19 06:11:06;;;;;;;11.05;7.90;;;;;;;;;;5030098;28;20241;-52
2022/06/19 06:13:33;;;;;;;12.80;7.30;;;;;;;;;;5019461;28;20233;-53
2022/06/19 06:16:00;;;;;;;10.80;8.63;;;;;;;;;;5030454;28;20232;-52
2022/06/19 06:18:28;;;;;;;18.00;9.95;;;;;;;;;;5022751;28;20245;-52
2022/06/19 06:20:55;;;;;;;9.73;7.18;;;;;;;;;;5027055;28;20225;-52
2022/06/19 06:23:21;;;;;;;13.05;7.88;;;;;;;;;;5026279;28;20319;-53
2022/06/19 06:25:48;;;;;;;10.43;7.75;;;;;;;;;;5020123;28;20228;-56
2022/06/19 06:28:14;;;;;;;12.85;7.00;;;;;;;;;;5040153;28;20390;-54
2022/06/19 06:30:41;;;;;;;9.98;7.40;;;;;;;;;;5027336;28;20261;-53
2022/06/19 06:33:07;;;;;;;13.27;8.00;;;;;;;;;;5024686;28;20243;-53
2022/06/19 06:35:35;;;;;;;9.02;6.90;;;;;;;;;;5023091;28;20647;-53
2022/06/19 06:38:01;;;;;;;9.35;7.45;;;;;;;;;;5023721;28;20227;-65
2022/06/19 06:40:28;;;;;;;12.50;8.15;;;;;;;;;;5019565;28;20618;-53
2022/06/19 06:42:54;;;;;;;12.20;7.78;;;;;;;;;;5017599;28;20734;-52
2022/06/19 06:45:22;;;;;;;12.45;7.55;;;;;;;;;;5016324;28;20229;-53
2022/06/19 06:47:48;;;;;;;11.30;7.22;;;;;;;;;;5024197;28;20231;-53
2022/06/19 06:50:14;;;;;;;12.77;7.75;;;;;;;;;;5018854;28;20240;-52
2022/06/19 06:52:42;;;;;;;9.25;7.32;;;;;;;;;;5024273;28;20243;-53
2022/06/19 06:55:09;;;;;;;12.25;7.65;;;;;;;;;;5025466;28;20312;-51
2022/06/19 06:57:35;;;;;;;12.73;6.95;;;;;;;;;;5019167;28;20233;-54
2022/06/19 07:00:03;;;;;;;10.95;7.47;;;;;;;;;;5023231;28;20232;-53
2022/06/19 07:02:29;;;;;;;11.90;7.03;;;;;;;;;;5024232;28;20262;-53
2022/06/19 07:04:56;;;;;;;14.90;7.38;;;;;;;;;;5023957;28;20235;-53
2022/06/19 07:07:22;;;;;;;13.88;6.97;;;;;;;;;;5022545;28;20243;-53
2022/06/19 07:09:50;;;;;;;12.82;7.63;;;;;;;;;;5021160;28;20229;-53
2022/06/19 07:12:16;;;;;;;16.08;7.28;;;;;;;;;;5043226;28;20242;-53
2022/06/19 07:14:43;;;;;;;10.52;6.80;;;;;;;;;;5022046;28;20228;-56
2022/06/19 07:17:09;;;;;;;10.82;6.18;;;;;;;;;;5040088;28;20233;-54
2022/06/19 07:19:35;;;;;;;13.60;6.53;;;;;;;;;;5017100;28;20243;-52
2022/06/19 07:22:02;;;;;;;12.50;6.15;;;;;;;;;;5029310;28;20321;-53
2022/06/19 07:24:28;;;;;;;11.02;6.28;;;;;;;;;;5031069;28;20232;-54
2022/06/19 07:26:56;;;;;;;12.00;6.90;;;;;;;;;;5022712;28;20312;-53
2022/06/19 07:29:22;;;;;;;11.18;6.38;;;;;;;;;;5015872;28;20233;-53
2022/06/19 07:31:49;;;;;;;10.98;5.90;;;;;;;;;;5022126;28;20229;-53
2022/06/19 07:34:15;;;;;;;10.77;6.18;;;;;;;;;;5020707;28;20225;-55
2022/06/19 07:36:43;;;;;;;11.40;4.70;;;;;;;;;;5023191;28;20314;-53
2022/06/19 07:39:10;;;;;;;10.15;5.15;;;;;;;;;;5017890;28;20263;-53
2022/06/19 07:41:36;;;;;;;11.55;5.15;;;;;;;;;;5024144;28;20236;-53
2022/06/19 07:44:04;;;;;;;9.82;5.25;;;;;;;;;;5016655;28;20660;-54
2022/06/19 07:46:30;;;;;;;8.65;4.78;;;;;;;;;;5021151;28;20237;-53
2022/06/19 07:51:40;;;;;;;14.48;5.13;;;;;;;;;;5020002;28;20713;-53
2022/06/19 07:54:07;;;;;;;10.50;4.65;;;;;;;;;;5017858;28;20228;-53
2022/06/19 07:56:34;;;;;;;11.45;5.38;;;;;;;;;;5050572;28;20944;-53
2022/06/19 07:59:02;;;;;;;12.73;4.63;;;;;;;;;;5020845;28;20316;-54
2022/06/19 08:01:29;;;;;;;9.45;4.30;;;;;;;;;;5021045;28;20323;-53
2022/06/19 08:03:56;;;;;;;7.63;5.10;;;;;;;;;;5022459;28;20250;-53
2022/06/19 08:06:22;;;;;;;13.55;6.20;;;;;;;;;;5027303;28;20312;-54
2022/06/19 08:08:48;;;;;;;13.32;5.32;;;;;;;;;;5021158;28;20228;-53
2022/06/19 08:11:15;;;;;;;9.40;6.00;;;;;;;;;;5028342;28;20237;-54
2022/06/19 08:13:41;;;;;;;13.30;6.13;;;;;;;;;;5030940;28;20629;-53
2022/06/19 08:16:09;;;;;;;8.13;6.55;;;;;;;;;;5026566;28;20244;-53
2022/06/19 08:18:37;;;;;;;9.35;6.35;;;;;;;;;;5027824;28;20570;-54
2022/06/19 08:21:04;;;;;;;13.43;7.78;;;;;;;;;;5032643;28;20232;-54
2022/06/19 08:23:30;;;;;;;13.38;7.18;;;;;;;;;;5023229;28;20343;-53
2022/06/19 08:25:56;;;;;;;14.43;7.50;;;;;;;;;;5017483;28;20741;-54
2022/06/19 08:28:25;;;;;;;12.93;7.03;;;;;;;;;;5024107;28;20242;-55
2022/06/19 08:30:52;;;;;;;9.38;6.35;;;;;;;;;;5020691;28;20232;-53
2022/06/19 08:33:19;;;;;;;17.88;7.97;;;;;;;;;;5016262;28;20244;-53
2022/06/19 08:35:48;;;;;;;7.72;6.38;;;;;;;;;;5018234;28;20231;-53
2022/06/19 08:38:16;;;;;;;11.38;7.47;;;;;;;;;;5014233;28;20231;-54
2022/06/19 08:40:52;;;;;;;10.88;7.35;;;;;;;;;;5018314;28;20247;-52
2022/06/19 08:43:27;;;;;;;16.80;7.80;;;;;;;;;;5028334;28;20227;-53
2022/06/19 08:45:59;;;;;;;15.43;7.00;;;;;;;;;;5029689;28;20232;-54
2022/06/19 08:48:36;;;;;;;17.98;7.10;;;;;;;;;;5027402;28;20255;-53
2022/06/19 08:51:09;;;;;;;26.20;8.38;;;;;;;;;;5022108;28;20240;-53
2022/06/19 08:53:44;;;;;;;14.05;7.10;;;;;;;;;;5029866;28;20326;-53
2022/06/19 08:56:14;;;;;;;15.50;7.38;;;;;;;;;;5021138;28;20224;-54
2022/06/19 08:58:43;;;;;;;15.18;5.60;;;;;;;;;;5022989;28;20248;-54
2022/06/19 09:01:13;;;;;;;13.32;6.25;;;;;;;;;;5019377;28;20312;-55
2022/06/19 09:06:37;;;;;;;17.33;7.00;;;;;;;;;;5021471;28;20270;-53
2022/06/19 09:09:11;;;;;;;11.85;5.45;;;;;;;;;;5020878;28;20243;-54
2022/06/19 09:11:52;;;;;;;13.80;5.57;;;;;;;;;;5021425;28;20229;-54
2022/06/19 09:14:27;;;;;;;15.85;5.18;;;;;;;;;;5014642;28;20598;-53
2022/06/19 09:16:59;;;;;;;26.90;6.47;;;;;;;;;;5039693;28;20231;-53
2022/06/19 09:19:33;;;;;;;11.98;5.03;;;;;;;;;;5023588;28;20242;-52
2022/06/19 09:22:06;;;;;;;21.00;5.97;;;;;;;;;;5020325;28;20233;-53
2022/06/19 09:24:41;;;;;;;11.85;5.90;;;;;;;;;;5033050;28;20322;-53
2022/06/19 09:27:09;;;;;;;15.43;4.72;;;;;;;;;;5041886;28;20231;-53
2022/06/19 09:29:38;;;;;;;14.23;4.97;;;;;;;;;;5041864;28;20247;-52
2022/06/19 09:32:07;;;;;;;10.38;4.18;;;;;;;;;;5041205;28;20270;-55
2022/06/19 09:34:38;;;;;;;20.40;4.32;;;;;;;;;;5043019;28;20236;-54
2022/06/19 09:37:09;;;;;;;13.23;4.55;;;;;;;;;;5032424;28;20230;-54
2022/06/19 09:39:46;;;;;;;9.98;4.30;;;;;;;;;;5029520;28;20301;-54
2022/06/19 09:42:16;;;;;;;17.38;4.53;;;;;;;;;;5032784;28;20339;-53
2022/06/19 09:44:49;;;;;;;10.77;4.10;;;;;;;;;;5022700;28;20232;-53
2022/06/19 09:47:19;;;;;;;15.18;4.78;;;;;;;;;;5029943;28;20793;-53
2022/06/19 09:49:47;;;;;;;12.93;4.40;;;;;;;;;;5030691;28;20236;-52
2022/06/19 09:52:17;;;;;;;14.38;4.90;;;;;;;;;;5026759;28;20310;-52
2022/06/19 09:54:46;;;;;;;14.10;4.22;;;;;;;;;;5022621;28;20244;-52
2022/06/19 09:57:14;;;;;;;25.75;4.93;;;;;;;;;;5028503;28;20230;-54
2022/06/19 09:59:43;;;;;;;14.20;4.88;;;;;;;;;;5025834;28;20255;-54
2022/06/19 10:02:13;;;;;;;17.23;4.25;;;;;;;;;;5025399;28;20239;-54
2022/06/19 10:04:40;;;;;;;14.45;4.35;;;;;;;;;;5019898;28;20232;-53
2022/06/19 10:07:10;;;;;;;12.60;4.13;;;;;;;;;;5017909;28;20315;-53
2022/06/19 10:09:40;;;;;;;15.50;4.97;;;;;;;;;;5021255;28;20244;-53
2022/06/19 10:12:10;;;;;;;12.05;3.88;;;;;;;;;;5024409;28;20240;-53
2022/06/19 10:14:38;;;;;;;15.77;4.95;;;;;;;;;;5039073;28;20326;-53
2022/06/19 10:17:10;;;;;;;10.32;4.55;;;;;;;;;;5026776;28;20306;-53
2022/06/19 10:19:40;;;;;;;16.95;4.38;;;;;;;;;;5022430;28;20599;-53
2022/06/19 10:22:16;;;;;;;9.48;4.05;;;;;;;;;;5023835;28;20247;-53
2022/06/19 10:24:49;;;;;;;10.50;3.97;;;;;;;;;;5022686;28;20223;-53
2022/06/19 10:27:17;;;;;;;19.95;4.28;;;;;;;;;;5027653;28;20235;-53
2022/06/19 10:29:50;;;;;;;10.52;4.40;;;;;;;;;;5019817;28;20785;-54
2022/06/19 10:32:34;;;;;;;9.23;3.92;;;;;;;;;;5017435;28;20340;-52
2022/06/19 10:35:09;;;;;;;11.48;3.65;;;;;;;;;;5026411;28;20276;-53
2022/06/19 10:37:39;;;;;;;10.88;4.95;;;;;;;;;;5018420;28;20235;-53
2022/06/19 10:40:31;;;;;;;8.07;3.97;;;;;;;;;;5014942;28;20236;-53
2022/06/19 10:43:00;;;;;;;15.77;4.60;;;;;;;;;;5015010;28;20286;-53
2022/06/19 10:45:33;;;;;;;11.15;4.55;;;;;;;;;;5016668;28;20228;-54
2022/06/19 10:48:06;;;;;;;12.93;4.50;;;;;;;;;;5030368;28;20235;-52
2022/06/19 10:50:37;;;;;;;14.93;4.55;;;;;;;;;;5027739;28;20732;-53
2022/06/19 10:53:11;;;;;;;10.32;4.65;;;;;;;;;;5016309;28;20255;-53
2022/06/19 10:55:42;;;;;;;15.68;4.32;;;;;;;;;;5019413;28;20235;-53
2022/06/19 10:58:14;;;;;;;15.52;4.55;;;;;;;;;;5016292;28;20311;-53
2022/06/19 11:00:41;;;;;;;16.90;4.95;;;;;;;;;;5019191;28;20233;-52
2022/06/19 11:05:58;;;;;;;16.90;4.60;;;;;;;;;;5020943;28;20286;-52
2022/06/19 11:08:27;;;;;;;8.00;3.60;;;;;;;;;;5020034;28;20243;-53
2022/06/19 11:10:56;;;;;;;12.02;4.20;;;;;;;;;;5043135;28;20619;-53
2022/06/19 11:13:22;;;;;;;15.02;4.60;;;;;;;;;;5020177;28;20622;-52
2022/06/19 11:16:00;;;;;;;16.52;5.18;;;;;;;;;;5024668;28;20310;-53
2022/06/19 11:18:26;;;;;;;15.77;3.95;;;;;;;;;;5025495;28;20810;-53
2022/06/19 11:21:01;;;;;;;11.32;4.35;;;;;;;;;;5015924;28;20717;-52
2022/06/19 11:23:30;;;;;;;13.25;4.22;;;;;;;;;;5018173;28;20314;-53
2022/06/19 11:26:05;;;;;;;9.48;4.07;;;;;;;;;;5046532;28;20231;-53
2022/06/19 11:28:42;;;;;;;10.27;3.97;;;;;;;;;;5018501;28;20250;-53
2022/06/19 11:31:11;;;;;;;10.85;4.60;;;;;;;;;;5022920;28;20242;-53
2022/06/19 11:33:38;;;;;;;11.80;5.68;;;;;;;;;;5018262;28;20232;-53
2022/06/19 11:36:08;;;;;;;11.95;4.50;;;;;;;;;;5014969;28;20746;-53
2022/06/19 11:38:36;;;;;;;15.40;4.68;;;;;;;;;;5011436;28;20243;-53
2022/06/19 11:41:14;;;;;;;16.77;4.38;;;;;;;;;;5017346;28;20232;-52
2022/06/19 11:43:41;;;;;;;13.10;4.80;;;;;;;;;;5029980;28;20235;-53
2022/06/19 11:46:14;;;;;;;13.32;4.70;;;;;;;;;;5015704;28;20254;-53
2022/06/19 11:48:41;;;;;;;11.73;4.88;;;;;;;;;;5018408;28;20232;-53
2022/06/19 11:51:16;;;;;;;18.58;5.05;;;;;;;;;;5021326;28;20232;-53
2022/06/19 11:53:43;;;;;;;12.18;5.10;;;;;;;;;;5018824;28;20796;-53
2022/06/19 11:56:16;;;;;;;10.63;5.72;;;;;;;;;;5030874;28;20239;-54
2022/06/19 11:58:44;;;;;;;8.88;5.50;;;;;;;;;;5032753;28;20234;-53
2022/06/19 12:01:11;;;;;;;10.95;5.80;;;;;;;;;;5039438;28;20235;-53
2022/06/19 12:03:39;;;;;;;8.68;5.85;;;;;;;;;;5042976;28;20635;-53
2022/06/19 12:06:06;;;;;;;9.70;5.07;;;;;;;;;;5037258;28;20253;-53
2022/06/19 12:08:34;;;;;;;11.13;4.45;;;;;;;;;;5038391;28;20264;-52
2022/06/19 12:11:01;;;;;;;12.65;6.38;;;;;;;;;;5039356;28;20245;-52
2022/06/19 12:13:31;;;;;;;12.15;5.13;;;;;;;;;;5035499;28;20737;-52
2022/06/19 12:16:02;;;;;;;14.15;4.93;;;;;;;;;;5033250;28;20234;-53
2022/06/19 12:18:28;;;;;;;6.45;4.50;;;;;;;;;;5036657;28;20606;-53
2022/06/19 12:20:59;;;;;;;7.53;4.95;;;;;;;;;;5043480;28;20833;-52
2022/06/19 12:23:28;;;;;;;10.13;4.22;;;;;;;;;;5042760;28;20235;-52
2022/06/19 12:25:56;;;;;;;14.38;4.70;;;;;;;;;;5044373;28;20254;-52
2022/06/19 12:28:25;;;;;;;8.98;4.78;;;;;;;;;;5038208;28;20242;-52
2022/06/19 12:30:55;;;;;;;8.23;4.43;;;;;;;;;;5043812;28;20251;-52
2022/06/19 12:33:24;;;;;;;14.35;4.28;;;;;;;;;;5034457;28;20242;-53
2022/06/19 12:35:50;;;;;;;7.15;4.05;;;;;;;;;;5035132;28;20326;-53
2022/06/19 12:38:18;;;;;;;9.88;4.30;;;;;;;;;;5039100;28;20231;-52
2022/06/19 12:40:53;;;;;;;8.45;4.35;;;;;;;;;;5041633;28;20230;-53
2022/06/19 12:43:23;;;;;;;13.85;5.65;;;;;;;;;;5020782;28;20243;-53
2022/06/19 12:45:54;;;;;;;10.65;5.05;;;;;;;;;;5032433;28;20237;-53
2022/06/19 12:48:30;;;;;;;7.88;4.60;;;;;;;;;;5018937;28;20315;-53
2022/06/19 12:50:59;;;;;;;7.47;4.82;;;;;;;;;;5023930;28;20224;-53
2022/06/19 12:53:40;;;;;;;16.45;5.07;;;;;;;;;;5021341;28;20232;-52
2022/06/19 12:56:13;;;;;;;8.73;4.40;;;;;;;;;;5018990;28;20246;-52
2022/06/19 12:58:48;;;;;;;11.20;4.10;;;;;;;;;;5022087;28;20228;-52
2022/06/19 13:01:19;;;;;;;18.13;5.88;;;;;;;;;;5018413;28;20227;-52
2022/06/19 13:03:51;;;;;;;7.35;4.57;;;;;;;;;;5022388;28;20251;-52
2022/06/19 13:06:32;;;;;;;11.85;5.05;;;;;;;;;;5013494;28;20232;-52
2022/06/19 13:09:03;;;;;;;11.05;6.05;;;;;;;;;;5021415;28;20285;-53
2022/06/19 13:11:33;;;;;;;11.35;5.75;;;;;;;;;;5021014;28;20630;-52
2022/06/19 13:14:07;;;;;;;12.85;5.82;;;;;;;;;;5021488;28;20235;-52
2022/06/19 13:16:39;;;;;;;10.45;5.82;;;;;;;;;;5019458;28;20238;-52
2022/06/19 13:19:11;;;;;;;13.68;4.70;;;;;;;;;;5015729;28;20232;-52
2022/06/19 13:21:42;;;;;;;10.45;4.68;;;;;;;;;;5016175;28;20330;-52
2022/06/19 13:24:17;;;;;;;13.18;4.30;;;;;;;;;;5017994;28;20322;-52
2022/06/19 13:29:35;;;;;;;11.55;4.45;;;;;;;;;;5020927;28;20678;-52
2022/06/19 13:32:05;;;;;;;11.27;5.45;;;;;;;;;;5014858;28;20788;-52
2022/06/19 13:34:40;;;;;;;11.80;5.03;;;;;;;;;;5016391;28;20745;-52
2022/06/19 13:37:11;;;;;;;14.68;5.63;;;;;;;;;;5014204;28;20244;-52
2022/06/19 13:39:41;;;;;;;13.80;6.18;;;;;;;;;;5018128;28;20241;-52
2022/06/19 13:42:14;;;;;;;10.35;6.82;;;;;;;;;;5022221;28;20246;-53
2022/06/19 13:44:49;;;;;;;16.73;7.20;;;;;;;;;;5025958;28;20236;-52
2022/06/19 13:47:19;;;;;;;17.63;9.52;;;;;;;;;;5012810;28;20259;-52
2022/06/19 13:49:50;;;;;;;13.73;6.70;;;;;;;;;;5012770;28;20220;-53
2022/06/19 13:52:36;;;;;;;13.82;5.38;;;;;;;;;;5020684;28;20232;-53
2022/06/19 13:55:05;;;;;;;10.32;4.60;;;;;;;;;;5021045;28;20326;-53
2022/06/19 13:57:34;;;;;;;12.75;6.10;;;;;;;;;;5016066;28;20229;-52
2022/06/19 14:00:13;;;;;;;9.70;6.70;;;;;;;;;;5017708;28;20240;-52
2022/06/19 14:02:50;;;;;;;8.55;5.38;;;;;;;;;;5015526;28;20246;-53
2022/06/19 14:05:23;;;;;;;9.85;5.80;;;;;;;;;;5047843;28;20393;-53
2022/06/19 14:07:57;;;;;;;9.13;5.93;;;;;;;;;;5019039;28;20232;-53
2022/06/19 14:10:44;;;;;;;14.18;9.30;;;;;;;;;;5026655;28;20236;-53
2022/06/19 14:13:15;;;;;;;9.77;5.88;;;;;;;;;;5020315;28;20243;-52
2022/06/19 14:15:46;;;;;;;13.52;5.88;;;;;;;;;;5021176;28;20697;-52
2022/06/19 14:18:17;;;;;;;14.00;7.28;;;;;;;;;;5015279;28;20726;-52
2022/06/19 14:20:49;;;;;;;10.98;5.63;;;;;;;;;;5015028;28;20668;-53
2022/06/19 14:23:19;;;;;;;9.63;4.82;;;;;;;;;;5016863;28;20252;-53
2022/06/19 14:25:49;;;;;;;11.15;6.68;;;;;;;;;;5017048;28;20652;-53
2022/06/19 14:28:18;;;;;;;11.10;6.18;;;;;;;;;;5021304;28;20256;-53
2022/06/19 14:30:45;;;;;;;8.57;5.60;;;;;;;;;;5019426;28;20241;-53
2022/06/19 14:33:27;;;;;;;9.40;5.40;;;;;;;;;;5019433;28;20232;-53
2022/06/19 14:36:04;;;;;;;7.85;5.55;;;;;;;;;;5012771;28;20278;-53
2022/06/19 14:38:32;;;;;;;11.23;6.10;;;;;;;;;;5015663;28;20240;-52
2022/06/19 14:41:04;;;;;;;9.05;5.25;;;;;;;;;;5016229;28;20315;-53
2022/06/19 14:43:36;;;;;;;9.77;4.80;;;;;;;;;;5016841;28;20355;-52
2022/06/19 14:46:21;;;;;;;10.10;6.05;;;;;;;;;;5012857;28;20251;-53
2022/06/19 14:48:52;;;;;;;12.75;5.70;;;;;;;;;;5020896;28;20251;-52
2022/06/19 14:51:26;;;;;;;16.05;6.70;;;;;;;;;;5015679;28;20228;-53
2022/06/19 14:54:08;;;;;;;9.95;4.47;;;;;;;;;;5019641;28;20270;-53
2022/06/19 14:57:02;;;;;;;8.98;5.10;;;;;;;;;;5017817;28;20233;-52